Time;durP1;ratioP1;P1;durP2;ratioP2;P2;SDS_P1;SDS_P2;PMS_P1;PMS_P2;Temp;Humidity;BMP_temperature;BMP_pressure;BME280_temperature;BME280_humidity;BME280_pressure;Samples;Min_cycle;Max_cycle;Signal;HPM_P1;HPM_P2
2023/10/17 00:02:12;;;;;;;;;;;;;;;17.53;52.86;101562.50;4950735;29;1039;-48
2023/10/17 00:04:41;;;;;;;;;;;;;;;16.91;53.72;101557.22;4954835;29;1033;-48
2023/10/17 00:07:08;;;;;;;;;;;;;;;16.58;54.17;101563.66;4954359;29;1077;-47
2023/10/17 00:09:37;;;;;;;;;;;;;;;16.40;53.81;101562.84;4947875;29;1120;-46
2023/10/17 00:14:58;;;;;;;;;;;;;;;17.25;52.93;101553.44;4955554;29;1934;-48
2023/10/17 00:17:23;;;;;;;;;;;;;;;16.70;53.98;101552.53;4960533;29;1120;-49
2023/10/17 00:19:49;;;;;;;;;;;;;;;16.77;54.33;101561.41;4950784;29;1025;-49
2023/10/17 00:22:23;;;;;;;;;;;;;;;17.44;52.78;101542.91;4957980;29;1116;-50
2023/10/17 00:24:54;;;;;;;;;;;;;;;16.75;53.89;101549.84;4960668;29;1026;-48
2023/10/17 00:27:19;;;;;;;;;;;;;;;16.51;53.71;101550.09;4959911;29;892;-49
2023/10/17 00:29:45;;;;;;;;;;;;;;;16.29;53.92;101550.06;4960393;29;1010;-47
2023/10/17 00:32:12;;;;;;;;;;;;;;;17.54;52.91;101542.19;4953766;29;1238;-48
2023/10/17 00:34:38;;;;;;;;;;;;;;;16.85;53.76;101543.66;4941711;29;1910;-44
2023/10/17 00:37:10;;;;;;;;;;;;;;;16.50;54.02;101550.34;4959732;29;1157;-47
2023/10/17 00:39:39;;;;;;;;;;;;;;;16.46;54.20;101543.72;4945354;28;1206;-47
2023/10/17 00:44:38;;;;;;;;;;;;;;;16.80;53.54;101530.66;4946818;29;1168;-46
2023/10/17 00:47:19;;;;;;;;;;;;;;;16.48;53.89;101527.81;4941206;29;1069;-46
2023/10/17 00:49:45;;;;;;;;;;;;;;;17.66;52.19;101544.78;4956321;29;1242;-46
2023/10/17 00:52:19;;;;;;;;;;;;;;;16.93;53.61;101545.97;4960376;29;1017;-47
2023/10/17 00:54:45;;;;;;;;;;;;;;;16.53;54.04;101539.69;4947517;29;1985;-45
2023/10/17 00:57:14;;;;;;;;;;;;;;;16.36;53.86;101539.72;4953507;29;1587;-47
2023/10/17 00:59:44;;;;;;;;;;;;;;;16.71;54.18;101544.03;4946818;29;1078;-49
2023/10/17 01:02:10;;;;;;;;;;;;;;;17.31;52.73;101544.19;4951308;29;1095;-47
2023/10/17 01:04:41;;;;;;;;;;;;;;;16.56;54.10;101544.69;4959641;29;1198;-49
2023/10/17 01:07:07;;;;;;;;;;;;;;;16.41;53.66;101549.94;4959869;29;1069;-46
2023/10/17 01:09:36;;;;;;;;;;;;;;;17.24;53.34;101549.06;4959971;28;1161;-47
2023/10/17 01:12:08;;;;;;;;;;;;;;;17.18;53.12;101544.59;4959759;29;1104;-47
2023/10/17 01:14:35;;;;;;;;;;;;;;;16.69;53.69;101553.59;4960050;29;1887;-47
2023/10/17 01:17:05;;;;;;;;;;;;;;;16.41;53.71;101555.44;4959275;29;1065;-48
2023/10/17 01:19:33;;;;;;;;;;;;;;;17.34;53.25;101546.41;4951400;29;1158;-45
2023/10/17 01:21:58;;;;;;;;;;;;;;;17.20;53.17;101536.91;4953113;29;1061;-48
2023/10/17 01:24:25;;;;;;;;;;;;;;;16.64;54.09;101548.06;4946941;29;1235;-46
2023/10/17 01:26:51;;;;;;;;;;;;;;;16.45;53.59;101542.88;4948903;29;1021;-45
2023/10/17 01:29:18;;;;;;;;;;;;;;;16.80;54.01;101555.38;4959779;29;1060;-46
2023/10/17 01:31:44;;;;;;;;;;;;;;;17.39;52.66;101538.22;4959172;28;1090;-46
2023/10/17 01:34:09;;;;;;;;;;;;;;;16.77;53.46;101548.50;4959172;29;1906;-48
2023/10/17 01:36:37;;;;;;;;;;;;;;;16.44;53.77;101546.72;4959404;29;1093;-46
2023/10/17 01:39:12;;;;;;;;;;;;;;;16.25;53.79;101551.66;4954179;29;885;-47
2023/10/17 01:41:38;;;;;;;;;;;;;;;17.40;52.80;101545.38;4955468;29;1104;-46
2023/10/17 01:44:04;;;;;;;;;;;;;;;17.04;53.40;101542.25;4949326;29;1011;-45
2023/10/17 01:46:30;;;;;;;;;;;;;;;16.57;53.86;101551.00;4959062;29;1037;-50
2023/10/17 01:48:55;;;;;;;;;;;;;;;16.38;53.57;101547.72;4959189;29;1065;-46
2023/10/17 01:51:23;;;;;;;;;;;;;;;16.97;53.70;101549.88;4947150;28;1089;-48
2023/10/17 01:53:51;;;;;;;;;;;;;;;17.12;53.14;101551.13;4958637;29;1980;-47
2023/10/17 01:56:20;;;;;;;;;;;;;;;16.58;53.82;101558.16;4959061;29;1135;-47
2023/10/17 01:58:50;;;;;;;;;;;;;;;16.37;54.02;101554.31;4958016;29;1074;-47
2023/10/17 02:01:24;;;;;;;;;;;;;;;17.57;52.39;101547.16;4956916;29;1754;-48
2023/10/17 02:03:50;;;;;;;;;;;;;;;16.70;53.79;101566.25;4953521;29;999;-46
2023/10/17 02:06:21;;;;;;;;;;;;;;;16.48;53.54;101552.50;4953464;29;1014;-48
2023/10/17 02:08:47;;;;;;;;;;;;;;;16.28;53.50;101548.41;4940054;29;1123;-47
2023/10/17 02:11:13;;;;;;;;;;;;;;;17.34;53.00;101554.66;4939972;29;1034;-48
2023/10/17 02:13:42;;;;;;;;;;;;;;;16.95;53.35;101545.72;4952004;29;1898;-47
2023/10/17 02:16:10;;;;;;;;;;;;;;;16.51;53.83;101546.50;4946375;29;864;-49
2023/10/17 02:18:35;;;;;;;;;;;;;;;16.62;54.25;101542.84;4957544;29;1212;-47
2023/10/17 02:21:04;;;;;;;;;;;;;;;17.26;52.61;101536.72;4958605;29;1060;-46
2023/10/17 02:23:36;;;;;;;;;;;;;;;16.66;53.74;101537.66;4957734;29;1073;-46
2023/10/17 02:26:09;;;;;;;;;;;;;;;16.34;53.77;101536.44;4960437;28;1046;-44
2023/10/17 02:28:46;;;;;;;;;;;;;;;16.96;53.70;101531.72;4941970;29;1107;-46
2023/10/17 02:31:15;;;;;;;;;;;;;;;17.26;52.84;101538.63;4948621;29;1172;-50
2023/10/17 02:33:43;;;;;;;;;;;;;;;16.64;53.93;101546.13;4954369;29;1956;-47
2023/10/17 02:36:12;;;;;;;;;;;;;;;16.37;53.96;101541.41;4947949;29;1204;-45
2023/10/17 02:38:41;;;;;;;;;;;;;;;17.40;52.74;101542.63;4951354;29;1037;-47
2023/10/17 02:41:14;;;;;;;;;;;;;;;17.04;53.39;101538.66;4950520;29;1037;-48
2023/10/17 02:43:45;;;;;;;;;;;;;;;16.65;53.64;101539.56;4957989;29;1029;-45
2023/10/17 02:46:13;;;;;;;;;;;;;;;16.36;53.86;101537.00;4958392;29;1049;-43
2023/10/17 02:48:42;;;;;;;;;;;;;;;16.72;54.15;101534.72;4945753;29;1034;-45
2023/10/17 02:51:18;;;;;;;;;;;;;;;17.49;52.32;101539.38;4949974;29;1033;-48
2023/10/17 02:53:43;;;;;;;;;;;;;;;16.69;53.89;101543.47;4957704;29;1918;-48
2023/10/17 02:56:18;;;;;;;;;;;;;;;16.38;53.84;101548.56;4944550;29;1482;-50
2023/10/17 02:58:48;;;;;;;;;;;;;;;17.40;52.64;101537.13;4948566;29;1001;-50
2023/10/17 03:01:14;;;;;;;;;;;;;;;16.83;53.54;101538.41;4950998;28;1185;-47
2023/10/17 03:03:40;;;;;;;;;;;;;;;16.46;53.79;101540.97;4949490;29;1140;-43
2023/10/17 03:06:06;;;;;;;;;;;;;;;16.85;53.95;101546.41;4945090;29;1125;-44
2023/10/17 03:08:38;;;;;;;;;;;;;;;17.31;52.65;101541.44;4956630;29;1244;-45
2023/10/17 03:11:16;;;;;;;;;;;;;;;16.63;53.60;101538.97;4957787;29;1029;-48
2023/10/17 03:13:43;;;;;;;;;;;;;;;16.41;53.54;101533.47;4956261;29;1906;-47
2023/10/17 03:16:24;;;;;;;;;;;;;;;17.02;53.65;101533.44;4952948;29;901;-46
2023/10/17 03:18:50;;;;;;;;;;;;;;;16.99;53.01;101533.94;4970627;28;1474;-48
2023/10/17 03:21:18;;;;;;;;;;;;;;;16.52;53.70;101538.03;4947367;29;1412;-48
2023/10/17 03:23:48;;;;;;;;;;;;;;;16.30;53.68;101538.00;4941714;29;1168;-48
2023/10/17 03:26:16;;;;;;;;;;;;;;;16.70;53.87;101539.63;4947789;29;1256;-42
2023/10/17 03:28:42;;;;;;;;;;;;;;;17.51;52.04;101539.97;4954774;29;880;-46
2023/10/17 03:31:10;;;;;;;;;;;;;;;16.72;53.56;101544.88;4958047;29;1232;-48
2023/10/17 03:33:40;;;;;;;;;;;;;;;16.38;53.76;101548.56;4943970;29;1993;-48
2023/10/17 03:36:39;;;;;;;;;;;;;;;16.41;54.22;101545.31;4956107;29;1544;-45
2023/10/17 03:38:54;;;;;;;;;;;;;;;17.51;51.94;101542.72;4942178;29;1529;-43
2023/10/17 03:41:24;;;;;;;;;;;;;;;16.73;53.62;101543.78;4945216;29;1152;-48
2023/10/17 03:43:52;;;;;;;;;;;;;;;16.42;53.58;101533.25;4950194;29;1072;-47
2023/10/17 03:46:25;;;;;;;;;;;;;;;16.67;53.88;101550.28;4952446;29;1125;-46
2023/10/17 03:48:57;;;;;;;;;;;;;;;17.38;52.31;101542.03;4957778;29;1132;-46
2023/10/17 03:51:24;;;;;;;;;;;;;;;16.65;53.72;101547.81;4947577;29;1057;-48
2023/10/17 03:53:53;;;;;;;;;;;;;;;16.41;53.67;101544.44;4956347;29;1898;-49
2023/10/17 03:56:23;;;;;;;;;;;;;;;17.05;53.45;101545.81;4956931;29;918;-49
2023/10/17 03:58:57;;;;;;;;;;;;;;;17.27;52.40;101545.78;4957409;29;1107;-46
2023/10/17 04:01:28;;;;;;;;;;;;;;;16.67;53.62;101550.28;4944737;29;1229;-47
2023/10/17 04:03:54;;;;;;;;;;;;;;;16.36;53.60;101534.25;4953814;29;1197;-49
2023/10/17 04:06:34;;;;;;;;;;;;;;;16.92;53.70;101547.06;4949820;29;1224;-48
2023/10/17 04:11:46;;;;;;;;;;;;;;;16.58;53.50;101547.19;4957917;29;1061;-53
2023/10/17 04:14:12;;;;;;;;;;;;;;;16.34;53.76;101541.91;4947472;29;1962;-49
2023/10/17 04:16:43;;;;;;;;;;;;;;;16.88;53.77;101540.38;4957643;29;971;-48
2023/10/17 04:19:17;;;;;;;;;;;;;;;17.23;52.71;101539.97;4958770;29;1132;-49
2023/10/17 04:21:51;;;;;;;;;;;;;;;16.62;53.93;101537.34;4960806;29;1076;-46
2023/10/17 04:29:43;;;;;;;;;;;;;;;16.71;53.68;101538.53;4960707;28;1100;-49
2023/10/17 04:32:15;;;;;;;;;;;;;;;16.40;53.53;101538.16;4942822;29;1088;-49
2023/10/17 04:34:47;;;;;;;;;;;;;;;16.68;53.89;101530.00;4954305;29;1894;-41
2023/10/17 04:37:16;;;;;;;;;;;;;;;17.30;53.17;101526.03;4960011;29;1036;-49
2023/10/17 04:39:56;;;;;;;;;;;;;;;16.60;52.44;101534.00;4953200;29;1137;-50
2023/10/17 04:45:06;;;;;;;;;;;;;;;17.16;53.06;101530.28;4960370;29;1133;-47
2023/10/17 04:47:32;;;;;;;;;;;;;;;16.81;51.68;101528.78;4949094;29;1148;-48
2023/10/17 04:49:58;;;;;;;;;;;;;;;18.23;52.09;101535.84;4954052;29;1139;-45
2023/10/17 04:52:40;;;;;;;;;;;;;;;17.14;51.93;101538.78;4952032;29;1134;-51
2023/10/17 04:55:31;;;;;;;;;;;;;;;16.74;50.37;101546.25;4941435;29;1977;-45
2023/10/17 04:57:59;;;;;;;;;;;;;;;17.43;52.06;101547.59;4950485;29;1072;-50
2023/10/17 05:03:14;;;;;;;;;;;;;;;18.21;51.82;101554.53;4939240;29;1253;-45
2023/10/17 05:05:45;;;;;;;;;;;;;;;17.27;51.49;101571.34;4939700;29;1007;-45
2023/10/17 05:08:11;;;;;;;;;;;;;;;17.07;50.11;101562.91;4954843;29;1085;-46
2023/10/17 06:16:59;;;;;;;;;;;;;;;18.10;48.80;101585.84;4951480;29;1149;-48
2023/10/17 06:19:25;;;;;;;;;;;;;;;17.52;49.18;101599.38;4947573;29;1082;-47
2023/10/17 06:34:47;;;;;;;;;;;;;;;17.35;48.37;101600.31;4958037;29;1977;-48
2023/10/17 06:37:19;;;;;;;;;;;;;;;17.22;47.22;101606.19;4957367;28;1508;-46
2023/10/17 06:39:47;;;;;;;;;;;;;;;16.89;46.70;101605.28;4945254;29;997;-46
2023/10/17 06:42:27;;;;;;;;;;;;;;;16.87;45.81;101593.66;4948134;29;1001;-45
2023/10/17 06:45:07;;;;;;;;;;;;;;;17.62;47.13;101593.97;4941233;29;1034;-51
2023/10/17 06:47:41;;;;;;;;;;;;;;;17.68;48.37;101592.91;4950464;29;1033;-49
2023/10/17 06:55:28;;;;;;;;;;;;;;;17.64;48.80;101585.44;4947687;29;1902;-50
2023/10/17 06:57:56;;;;;;;;;;;;;;;17.15;47.95;101591.81;4957422;29;994;-49
2023/10/17 07:00:27;;;;;;;;;;;;;;;16.98;47.11;101589.97;4957495;29;1037;-48
2023/10/17 07:02:56;;;;;;;;;;;;;;;16.94;46.86;101588.81;4956179;29;971;-48
2023/10/17 07:05:22;;;;;;;;;;;;;;;17.47;48.29;101586.38;4955953;28;1077;-47
2023/10/17 07:07:52;;;;;;;;;;;;;;;17.06;47.63;101592.28;4953890;29;1406;-48
2023/10/17 07:10:36;;;;;;;;;;;;;;;18.41;48.17;101581.41;4956918;29;1003;-46
2023/10/17 07:13:22;;;;;;;;;;;;;;;17.40;48.53;101586.63;4955719;29;1003;-46
2023/10/17 07:15:52;;;;;;;;;;;;;;;17.05;47.80;101590.59;4956842;28;1057;-51
2023/10/17 07:23:44;;;;;;;;;;;;;;;17.14;48.36;101584.66;4946340;29;1133;-46
2023/10/17 07:26:15;;;;;;;;;;;;;;;17.34;48.39;101584.88;4944851;29;1132;-48
2023/10/17 07:28:43;;;;;;;;;;;;;;;17.49;48.47;101577.88;4941483;29;1026;-45
2023/10/17 07:31:12;;;;;;;;;;;;;;;17.25;47.50;101567.19;4945521;29;1031;-49
2023/10/17 07:33:38;;;;;;;;;;;;;;;16.90;46.99;101577.53;4956606;29;1898;-51
2023/10/17 07:36:06;;;;;;;;;;;;;;;17.76;47.44;101569.59;4954898;29;1316;-46
2023/10/17 07:38:31;;;;;;;;;;;;;;;17.22;47.53;101568.56;4957050;29;1042;-53
2023/10/17 07:41:09;;;;;;;;;;;;;;;16.95;46.71;101567.69;4953255;29;1048;-52
2023/10/17 07:43:35;;;;;;;;;;;;;;;16.97;47.20;101560.88;4957381;29;1073;-51
2023/10/17 07:46:06;;;;;;;;;;;;;;;17.74;47.69;101558.88;4957420;29;1189;-47
2023/10/17 07:48:32;;;;;;;;;;;;;;;17.19;47.41;101560.00;4946987;29;1106;-47
2023/10/17 07:51:00;;;;;;;;;;;;;;;16.97;46.80;101569.09;4960827;29;2046;-50
2023/10/17 07:53:31;;;;;;;;;;;;;;;16.74;46.39;101565.47;4960562;29;1906;-51
2023/10/17 07:56:12;;;;;;;;;;;;;;;17.89;47.20;101566.44;4952806;29;1072;-51
2023/10/17 07:58:45;;;;;;;;;;;;;;;17.18;47.84;101563.81;4957317;29;911;-48
2023/10/17 08:01:14;;;;;;;;;;;;;;;16.98;47.17;101564.44;4951164;29;1203;-48
2023/10/17 08:03:41;;;;;;;;;;;;;;;16.88;46.43;101556.88;4958451;29;1090;-50
2023/10/17 08:06:08;;;;;;;;;;;;;;;17.65;46.80;101546.69;4950376;29;1369;-50
2023/10/17 08:08:34;;;;;;;;;;;;;;;17.57;47.93;101545.25;4961041;29;1069;-51
2023/10/17 08:11:03;;;;;;;;;;;;;;;17.13;47.51;101552.78;4947852;29;1145;-51
2023/10/17 08:13:28;;;;;;;;;;;;;;;16.94;46.77;101558.59;4959847;29;1906;-47
2023/10/17 08:16:05;;;;;;;;;;;;;;;16.86;46.32;101548.88;4960580;28;1025;-47
2023/10/17 08:18:39;;;;;;;;;;;;;;;17.63;46.82;101543.38;4948261;29;1021;-46
2023/10/17 08:23:50;;;;;;;;;;;;;;;16.79;46.59;101542.75;4949437;29;1010;-50
2023/10/17 08:26:17;;;;;;;;;;;;;;;17.53;47.50;101541.38;4959978;28;1144;-49
2023/10/17 08:28:47;;;;;;;;;;;;;;;17.07;47.25;101533.50;4960037;28;1074;-48
2023/10/17 08:31:35;;;;;;;;;;;;;;;17.87;47.21;101534.75;4960098;28;1189;-52
2023/10/17 08:36:46;;;;;;;;;;;;;;;16.98;47.12;101539.69;4964770;28;1323;-51
2023/10/17 08:42:05;;;;;;;;;;;;;;;17.17;47.65;101541.00;4956514;29;818;-51
2023/10/17 08:44:33;;;;;;;;;;;;;;;17.00;46.63;101527.38;4957246;29;1069;-49
2023/10/17 08:46:59;;;;;;;;;;;;;;;17.67;47.41;101535.41;4952342;29;1172;-50
2023/10/17 08:49:27;;;;;;;;;;;;;;;17.47;47.72;101536.06;4941302;29;1076;-51
2023/10/17 08:51:56;;;;;;;;;;;;;;;17.18;47.35;101533.59;4959847;29;2496;-49
2023/10/17 08:54:22;;;;;;;;;;;;;;;16.92;46.53;101536.88;4949708;29;1978;-51
2023/10/17 08:56:48;;;;;;;;;;;;;;;17.74;47.44;101533.25;4951758;29;1144;-52
2023/10/17 09:00:13;;;;;;;;;;;;;;;17.16;47.52;101524.78;4940121;29;1029;-52
2023/10/17 09:02:01;;;;;;;;;;;;;;;17.00;46.73;101526.53;4933777;29;1539;-49
2023/10/17 09:04:33;;;;;;;;;;;;;;;16.87;46.32;101528.59;4957526;29;1201;-50
2023/10/17 09:06:59;;;;;;;;;;;;;;;17.80;47.31;101518.47;4955783;29;894;-52
2023/10/17 09:09:28;;;;;;;;;;;;;;;17.18;47.59;101517.09;4959344;29;1074;-49
2023/10/17 09:14:38;;;;;;;;;;;;;;;18.17;47.00;101500.31;4940345;29;1902;-53
2023/10/17 09:19:47;;;;;;;;;;;;;;;17.14;46.74;101504.97;4959523;29;1005;-49
2023/10/17 09:22:15;;;;;;;;;;;;;;;16.92;46.57;101503.09;4959092;29;2493;-53
2023/10/17 09:24:40;;;;;;;;;;;;;;;17.70;46.98;101502.72;4948540;29;1113;-48
2023/10/17 09:27:06;;;;;;;;;;;;;;;17.47;47.54;101498.41;4957444;29;1152;-53
2023/10/17 09:29:45;;;;;;;;;;;;;;;17.05;47.38;101499.94;4956007;29;1056;-46
2023/10/17 09:32:10;;;;;;;;;;;;;;;16.96;46.67;101485.03;4959378;28;1227;-52
2023/10/17 09:34:36;;;;;;;;;;;;;;;17.81;47.30;101489.03;4959037;29;1903;-52
2023/10/17 09:37:04;;;;;;;;;;;;;;;17.33;47.95;101489.75;4952992;29;1518;-49
2023/10/17 09:39:33;;;;;;;;;;;;;;;17.09;47.09;101492.84;4952673;29;1040;-51
2023/10/17 09:41:58;;;;;;;;;;;;;;;17.61;47.73;101490.53;4958254;28;1069;-48
2023/10/17 09:44:24;;;;;;;;;;;;;;;17.64;48.19;101483.69;4958274;28;1045;-48
2023/10/17 09:46:51;;;;;;;;;;;;;;;17.17;47.71;101474.25;4958247;29;1184;-50
2023/10/17 09:49:17;;;;;;;;;;;;;;;17.06;47.07;101476.88;4957877;29;1288;-48
2023/10/17 09:51:43;;;;;;;;;;;;;;;17.24;47.53;101477.59;4952554;28;2016;-50
2023/10/17 09:54:08;;;;;;;;;;;;;;;17.53;47.92;101464.38;4951534;29;1910;-46
2023/10/17 09:56:38;;;;;;;;;;;;;;;17.09;47.89;101470.84;4957548;29;1041;-49
2023/10/17 09:59:05;;;;;;;;;;;;;;;17.06;46.93;101476.06;4958526;29;1129;-50
2023/10/17 10:01:31;;;;;;;;;;;;;;;16.87;46.95;101470.03;4958399;29;1029;-47
2023/10/17 10:03:57;;;;;;;;;;;;;;;17.63;47.84;101471.88;4957094;29;1089;-51
2023/10/17 10:06:26;;;;;;;;;;;;;;;17.10;47.88;101467.00;4957664;29;916;-51
2023/10/17 10:09:00;;;;;;;;;;;;;;;16.97;47.20;101453.72;4958336;29;1002;-48
2023/10/17 10:11:44;;;;;;;;;;;;;;;16.80;46.76;101450.19;4949488;28;1001;-52
2023/10/17 10:14:11;;;;;;;;;;;;;;;17.94;47.42;101433.59;4951967;29;1910;-47
2023/10/17 10:16:46;;;;;;;;;;;;;;;17.26;48.13;101442.41;4949710;29;1102;-48
2023/10/17 10:19:14;;;;;;;;;;;;;;;16.96;47.51;101432.81;4952456;29;1101;-51
2023/10/17 10:21:54;;;;;;;;;;;;;;;17.99;47.54;101424.53;4956557;29;2444;-53
2023/10/17 10:24:33;;;;;;;;;;;;;;;17.26;47.99;101432.28;4947593;29;1053;-49
2023/10/17 10:27:11;;;;;;;;;;;;;;;17.10;47.00;101433.22;4947918;28;1195;-49
2023/10/17 10:29:37;;;;;;;;;;;;;;;17.03;47.16;101425.19;4966284;28;1111;-48
2023/10/17 10:32:06;;;;;;;;;;;;;;;17.87;47.71;101419.22;4957197;28;1005;-50
2023/10/17 10:34:39;;;;;;;;;;;;;;;17.22;47.76;101417.41;4958141;29;1911;-48
2023/10/17 10:37:04;;;;;;;;;;;;;;;16.95;47.26;101417.41;4957905;29;1088;-50
2023/10/17 10:39:30;;;;;;;;;;;;;;;17.78;47.52;101408.72;4947605;29;1116;-51
2023/10/17 10:42:05;;;;;;;;;;;;;;;17.22;48.16;101397.31;4953242;29;1064;-53
2023/10/17 10:44:39;;;;;;;;;;;;;;;17.03;47.39;101405.97;4958224;29;1128;-51
2023/10/17 10:47:05;;;;;;;;;;;;;;;16.90;46.69;101422.84;4957143;28;1373;-45
2023/10/17 10:49:31;;;;;;;;;;;;;;;18.01;47.13;101406.66;4956346;28;1272;-51
2023/10/17 10:52:00;;;;;;;;;;;;;;;17.22;47.76;101406.41;4948283;28;1846;-48
2023/10/17 10:54:45;;;;;;;;;;;;;;;17.06;46.93;101415.59;4957215;29;1978;-53
2023/10/17 10:57:12;;;;;;;;;;;;;;;17.88;47.21;101404.34;4963447;28;1422;-45
2023/10/17 10:59:48;;;;;;;;;;;;;;;17.12;47.81;101397.25;4966232;28;1137;-46
2023/10/17 11:02:13;;;;;;;;;;;;;;;16.98;47.19;101392.16;4960286;28;1299;-48
2023/10/17 11:04:39;;;;;;;;;;;;;;;17.67;47.81;101382.25;4959441;28;1102;-48
2023/10/17 11:07:20;;;;;;;;;;;;;;;17.13;47.97;101365.94;4955678;28;1354;-48
2023/10/17 11:09:59;;;;;;;;;;;;;;;17.27;47.69;101367.94;4958567;28;1189;-48
2023/10/17 11:12:25;;;;;;;;;;;;;;;17.52;47.92;101368.41;4961276;28;1369;-46
2023/10/17 11:15:08;;;;;;;;;;;;;;;18.28;45.66;101376.19;4951624;28;2111;-48
2023/10/17 11:17:33;;;;;;;;;;;;;;;18.85;45.54;101376.31;4948695;29;1771;-48
2023/10/17 11:19:59;;;;;;;;;;;;;;;17.75;47.32;101379.00;4948157;29;1993;-47
2023/10/17 11:22:25;;;;;;;;;;;;;;;17.45;47.08;101371.38;4953293;28;1901;-48
2023/10/17 11:24:51;;;;;;;;;;;;;;;17.31;46.55;101367.44;4954259;28;1915;-43
2023/10/17 11:27:17;;;;;;;;;;;;;;;17.21;46.03;101362.69;4957751;29;1827;-47
2023/10/17 11:29:43;;;;;;;;;;;;;;;17.10;45.72;101365.34;4953323;29;1722;-47
2023/10/17 11:32:11;;;;;;;;;;;;;;;18.33;46.42;101360.78;4958465;29;1990;-46
2023/10/17 11:34:36;;;;;;;;;;;;;;;17.45;47.39;101357.63;4962654;28;1965;-45
2023/10/17 11:37:03;;;;;;;;;;;;;;;17.24;46.99;101356.66;4956860;29;1263;-46
2023/10/17 11:39:41;;;;;;;;;;;;;;;17.05;46.28;101357.06;4956853;29;1093;-49
2023/10/17 11:42:07;;;;;;;;;;;;;;;17.02;45.66;101349.34;4945161;29;1387;-48
2023/10/17 11:44:33;;;;;;;;;;;;;;;18.05;46.52;101343.66;4961984;29;903;-47
2023/10/17 11:47:01;;;;;;;;;;;;;;;19.62;43.19;101358.91;4954732;28;2168;-47
2023/10/17 11:49:32;;;;;;;;;;;;;;;18.27;47.09;101346.19;4958892;28;1931;-48
2023/10/17 11:51:59;;;;;;;;;;;;;;;17.72;47.65;101349.25;4957566;29;2007;-46
2023/10/17 11:54:25;;;;;;;;;;;;;;;17.51;47.11;101345.56;4945803;29;2274;-44
2023/10/17 11:56:51;;;;;;;;;;;;;;;17.36;46.76;101346.31;4956825;28;1974;-48
2023/10/17 11:59:18;;;;;;;;;;;;;;;17.24;46.42;101351.16;4953580;29;2098;-46
2023/10/17 12:01:47;;;;;;;;;;;;;;;17.19;46.02;101346.44;4959123;29;1978;-50
2023/10/17 12:04:16;;;;;;;;;;;;;;;17.07;45.50;101348.56;4947417;29;1179;-46
2023/10/17 12:06:47;;;;;;;;;;;;;;;16.99;45.54;101346.31;4947759;29;1107;-46
2023/10/17 12:11:48;;;;;;;;;;;;;;;17.40;47.10;101344.69;4950678;28;1153;-49
2023/10/17 12:14:23;;;;;;;;;;;;;;;17.19;46.47;101334.63;4962690;29;1978;-47
2023/10/17 12:16:58;;;;;;;;;;;;;;;17.15;45.69;101336.25;4946512;29;1164;-45
2023/10/17 12:19:26;;;;;;;;;;;;;;;17.42;46.37;101337.00;4953048;29;1094;-47
2023/10/17 12:21:53;;;;;;;;;;;;;;;17.45;47.08;101341.94;4962019;29;1248;-47
2023/10/17 12:24:28;;;;;;;;;;;;;;;17.17;46.65;101337.66;4962366;29;1018;-46
2023/10/17 12:26:55;;;;;;;;;;;;;;;16.96;46.43;101333.91;4962521;29;1141;-50
2023/10/17 12:29:21;;;;;;;;;;;;;;;16.89;45.78;101333.31;4948624;29;1077;-49
2023/10/17 12:31:47;;;;;;;;;;;;;;;17.90;46.44;101327.88;4961396;28;2626;-47
2023/10/17 12:34:15;;;;;;;;;;;;;;;17.27;46.84;101318.47;4960435;28;1967;-48
2023/10/17 12:36:41;;;;;;;;;;;;;;;17.09;46.49;101325.22;4959570;29;1042;-50
2023/10/17 12:39:07;;;;;;;;;;;;;;;16.89;46.21;101322.31;4958171;29;1105;-50
2023/10/17 12:41:36;;;;;;;;;;;;;;;16.80;45.79;101330.16;4948275;29;1323;-49
2023/10/17 12:44:01;;;;;;;;;;;;;;;17.79;46.61;101319.59;4957990;29;1260;-47
2023/10/17 12:46:27;;;;;;;;;;;;;;;17.15;47.13;101322.50;4959767;29;1108;-47
2023/10/17 12:48:53;;;;;;;;;;;;;;;17.12;46.94;101317.53;4959937;29;1136;-47
2023/10/17 12:51:20;;;;;;;;;;;;;;;17.49;47.50;101322.16;4949242;29;1418;-48
2023/10/17 12:53:49;;;;;;;;;;;;;;;17.10;47.15;101315.88;4955536;29;1910;-49
2023/10/17 12:56:15;;;;;;;;;;;;;;;16.96;46.52;101317.44;4952487;29;842;-50
2023/10/17 12:58:40;;;;;;;;;;;;;;;16.86;46.37;101317.34;4957433;29;1034;-47
2023/10/17 13:01:06;;;;;;;;;;;;;;;17.70;46.85;101317.63;4949256;29;2387;-45
2023/10/17 13:03:33;;;;;;;;;;;;;;;17.10;47.16;101302.16;4946362;29;1006;-43
2023/10/17 13:06:00;;;;;;;;;;;;;;;16.95;46.82;101303.97;4940679;29;1166;-45
2023/10/17 13:08:26;;;;;;;;;;;;;;;16.83;46.04;101298.59;4952819;29;1146;-50
2023/10/17 13:10:55;;;;;;;;;;;;;;;16.76;45.66;101302.41;4955431;28;1156;-47
2023/10/17 13:13:21;;;;;;;;;;;;;;;17.81;46.90;101304.72;4947190;29;1197;-44
2023/10/17 13:15:47;;;;;;;;;;;;;;;17.14;47.25;101307.09;4957580;29;1902;-45
2023/10/17 13:18:14;;;;;;;;;;;;;;;17.64;47.42;101282.94;4957702;29;1013;-46
2023/10/17 13:20:46;;;;;;;;;;;;;;;17.51;48.04;101289.75;4956603;29;872;-49
2023/10/17 13:23:12;;;;;;;;;;;;;;;17.15;47.33;101286.78;4946461;29;1089;-48
2023/10/17 13:25:41;;;;;;;;;;;;;;;17.00;46.80;101274.63;4958640;29;1106;-49
2023/10/17 13:28:07;;;;;;;;;;;;;;;16.87;46.04;101283.25;4956290;28;1089;-51
2023/10/17 13:30:33;;;;;;;;;;;;;;;18.07;47.01;101294.66;4959248;29;2338;-44
2023/10/17 13:32:58;;;;;;;;;;;;;;;17.27;47.67;101295.66;4958695;29;919;-47
2023/10/17 13:35:24;;;;;;;;;;;;;;;16.99;47.05;101292.19;4958691;29;1975;-49
2023/10/17 13:37:52;;;;;;;;;;;;;;;16.88;46.39;101284.94;4945847;29;1121;-48
2023/10/17 13:40:19;;;;;;;;;;;;;;;17.51;46.95;101287.00;4958852;29;1105;-49
2023/10/17 13:42:45;;;;;;;;;;;;;;;17.23;47.61;101284.34;4954659;29;1072;-43
2023/10/17 13:45:13;;;;;;;;;;;;;;;16.90;47.25;101275.38;4948568;28;898;-49
2023/10/17 13:47:41;;;;;;;;;;;;;;;17.49;47.19;101275.41;4957192;29;1018;-46
2023/10/17 13:50:13;;;;;;;;;;;;;;;17.42;47.60;101279.25;4958686;29;1088;-49
2023/10/17 13:52:39;;;;;;;;;;;;;;;17.01;47.58;101259.78;4954502;28;1014;-48
2023/10/17 13:55:09;;;;;;;;;;;;;;;16.97;46.40;101263.31;4954774;29;1913;-48
2023/10/17 13:57:35;;;;;;;;;;;;;;;17.43;46.86;101267.16;4942962;29;1133;-45
2023/10/17 14:00:02;;;;;;;;;;;;;;;17.54;47.67;101261.72;4953825;29;962;-49
2023/10/17 14:02:30;;;;;;;;;;;;;;;17.14;47.50;101271.38;4956428;29;2589;-46
2023/10/17 14:04:55;;;;;;;;;;;;;;;18.07;47.24;101270.72;4957789;29;1057;-47
2023/10/17 14:07:21;;;;;;;;;;;;;;;17.32;47.90;101270.13;4957519;29;1131;-48
2023/10/17 14:09:47;;;;;;;;;;;;;;;17.12;46.88;101271.66;4958432;29;1088;-44
2023/10/17 14:12:13;;;;;;;;;;;;;;;16.95;46.37;101274.56;4958338;29;1026;-49
2023/10/17 14:14:38;;;;;;;;;;;;;;;17.96;47.01;101280.03;4958184;29;1914;-46
2023/10/17 14:17:04;;;;;;;;;;;;;;;17.27;47.73;101284.66;4945705;29;1120;-47
2023/10/17 14:27:53;;;;;;;;;;;;;;;17.17;47.53;101268.13;4957197;29;1200;-49
2023/10/17 14:30:11;;;;;;;;;;;;;;;16.90;47.05;101267.13;4945314;29;1520;-44
2023/10/17 14:32:37;;;;;;;;;;;;;;;17.58;47.41;101268.31;4952012;29;2509;-45
2023/10/17 14:35:04;;;;;;;;;;;;;;;17.60;47.95;101260.66;4950055;29;1975;-46
2023/10/17 14:37:30;;;;;;;;;;;;;;;17.10;47.72;101269.16;4944966;29;1137;-50
2023/10/17 14:39:56;;;;;;;;;;;;;;;17.02;46.98;101271.59;4958110;29;1041;-50
2023/10/17 14:42:21;;;;;;;;;;;;;;;17.74;48.12;101255.44;4953432;29;1132;-51
2023/10/17 14:44:49;;;;;;;;;;;;;;;17.13;48.03;101267.00;4949195;29;1203;-52
2023/10/17 14:47:17;;;;;;;;;;;;;;;17.12;47.08;101268.09;4957803;29;1025;-55
2023/10/17 14:49:42;;;;;;;;;;;;;;;17.03;46.34;101267.75;4957013;29;1196;-55
2023/10/17 14:52:08;;;;;;;;;;;;;;;17.24;47.16;101268.72;4946045;29;1022;-50
2023/10/17 14:54:36;;;;;;;;;;;;;;;17.52;47.76;101272.16;4953718;29;1907;-49
2023/10/17 14:57:06;;;;;;;;;;;;;;;17.08;47.24;101267.78;4949766;29;1057;-51
2023/10/17 14:59:34;;;;;;;;;;;;;;;16.90;46.95;101267.13;4956966;28;1251;-51
2023/10/17 15:02:01;;;;;;;;;;;;;;;16.88;46.39;101262.94;4945861;29;2552;-55
2023/10/17 15:04:26;;;;;;;;;;;;;;;17.97;47.19;101265.19;4958416;28;1050;-48
2023/10/17 15:06:53;;;;;;;;;;;;;;;17.22;47.60;101262.66;4957540;28;1065;-51
2023/10/17 15:09:21;;;;;;;;;;;;;;;17.04;47.20;101255.66;4945172;29;942;-49
2023/10/17 15:11:48;;;;;;;;;;;;;;;17.85;47.72;101250.81;4951606;29;1146;-49